sensor_id;sensor_type;location;lat;lon;timestamp;P1;durP1;ratioP1;P2;durP2;ratioP2
78288;SDS011;67539;48.752;12.922;2023-03-16T00:00:05;10.00;;;7.45;;
78288;SDS011;67539;48.752;12.922;2023-03-16T00:02:39;8.43;;;6.72;;
78288;SDS011;67539;48.752;12.922;2023-03-16T00:05:07;8.75;;;6.95;;
78288;SDS011;67539;48.752;12.922;2023-03-16T00:07:36;11.48;;;7.65;;
78288;SDS011;67539;48.752;12.922;2023-03-16T00:10:04;10.48;;;6.65;;
78288;SDS011;67539;48.752;12.922;2023-03-16T00:12:33;9.20;;;6.32;;
78288;SDS011;67539;48.752;12.922;2023-03-16T00:15:01;8.40;;;6.72;;
78288;SDS011;67539;48.752;12.922;2023-03-16T00:17:31;8.07;;;6.53;;
78288;SDS011;67539;48.752;12.922;2023-03-16T00:20:00;8.05;;;6.68;;
78288;SDS011;67539;48.752;12.922;2023-03-16T00:22:31;7.68;;;6.35;;
78288;SDS011;67539;48.752;12.922;2023-03-16T00:25:00;9.65;;;6.90;;
78288;SDS011;67539;48.752;12.922;2023-03-16T00:27:29;7.72;;;6.40;;
78288;SDS011;67539;48.752;12.922;2023-03-16T00:29:57;8.52;;;6.50;;
78288;SDS011;67539;48.752;12.922;2023-03-16T00:32:30;9.40;;;7.65;;
78288;SDS011;67539;48.752;12.922;2023-03-16T00:35:01;9.77;;;7.22;;
78288;SDS011;67539;48.752;12.922;2023-03-16T00:37:35;8.13;;;7.32;;
78288;SDS011;67539;48.752;12.922;2023-03-16T00:40:05;7.70;;;6.43;;
78288;SDS011;67539;48.752;12.922;2023-03-16T00:42:36;7.78;;;6.55;;
78288;SDS011;67539;48.752;12.922;2023-03-16T00:45:05;9.43;;;7.10;;
78288;SDS011;67539;48.752;12.922;2023-03-16T00:47:35;7.32;;;6.50;;
78288;SDS011;67539;48.752;12.922;2023-03-16T00:50:04;8.50;;;6.47;;
78288;SDS011;67539;48.752;12.922;2023-03-16T00:52:32;9.75;;;7.30;;
78288;SDS011;67539;48.752;12.922;2023-03-16T00:55:01;9.57;;;7.18;;
78288;SDS011;67539;48.752;12.922;2023-03-16T00:57:30;8.05;;;6.47;;
78288;SDS011;67539;48.752;12.922;2023-03-16T00:59:58;8.70;;;7.28;;
78288;SDS011;67539;48.752;12.922;2023-03-16T01:02:30;8.75;;;6.60;;
78288;SDS011;67539;48.752;12.922;2023-03-16T01:05:04;8.15;;;7.10;;
78288;SDS011;67539;48.752;12.922;2023-03-16T01:07:33;10.80;;;7.20;;
78288;SDS011;67539;48.752;12.922;2023-03-16T01:10:02;10.48;;;7.80;;
78288;SDS011;67539;48.752;12.922;2023-03-16T01:12:31;17.58;;;7.45;;
78288;SDS011;67539;48.752;12.922;2023-03-16T01:14:59;10.52;;;7.50;;
78288;SDS011;67539;48.752;12.922;2023-03-16T01:17:27;13.75;;;8.32;;
78288;SDS011;67539;48.752;12.922;2023-03-16T01:19:55;10.95;;;7.10;;
78288;SDS011;67539;48.752;12.922;2023-03-16T01:22:24;7.72;;;6.93;;
78288;SDS011;67539;48.752;12.922;2023-03-16T01:24:53;9.90;;;7.38;;
78288;SDS011;67539;48.752;12.922;2023-03-16T01:27:21;10.25;;;7.10;;
78288;SDS011;67539;48.752;12.922;2023-03-16T01:29:51;10.95;;;7.47;;
78288;SDS011;67539;48.752;12.922;2023-03-16T01:32:20;10.05;;;6.72;;
78288;SDS011;67539;48.752;12.922;2023-03-16T01:34:48;10.32;;;7.53;;
78288;SDS011;67539;48.752;12.922;2023-03-16T01:37:17;8.25;;;7.35;;
78288;SDS011;67539;48.752;12.922;2023-03-16T01:39:54;9.95;;;7.78;;
78288;SDS011;67539;48.752;12.922;2023-03-16T01:42:22;10.48;;;8.00;;
78288;SDS011;67539;48.752;12.922;2023-03-16T01:44:52;10.48;;;8.20;;
78288;SDS011;67539;48.752;12.922;2023-03-16T01:47:25;11.93;;;8.75;;
78288;SDS011;67539;48.752;12.922;2023-03-16T01:49:54;9.32;;;7.88;;
78288;SDS011;67539;48.752;12.922;2023-03-16T01:52:28;9.45;;;7.30;;
78288;SDS011;67539;48.752;12.922;2023-03-16T01:55:01;9.43;;;7.55;;
78288;SDS011;67539;48.752;12.922;2023-03-16T01:57:33;13.95;;;8.05;;
78288;SDS011;67539;48.752;12.922;2023-03-16T02:00:06;10.32;;;8.02;;
78288;SDS011;67539;48.752;12.922;2023-03-16T02:02:50;9.57;;;7.68;;
78288;SDS011;67539;48.752;12.922;2023-03-16T02:05:30;8.55;;;7.40;;
78288;SDS011;67539;48.752;12.922;2023-03-16T02:08:02;11.98;;;8.15;;
78288;SDS011;67539;48.752;12.922;2023-03-16T02:10:33;10.35;;;7.78;;
78288;SDS011;67539;48.752;12.922;2023-03-16T02:13:02;10.55;;;7.85;;
78288;SDS011;67539;48.752;12.922;2023-03-16T02:15:30;9.57;;;7.95;;
78288;SDS011;67539;48.752;12.922;2023-03-16T02:18:01;11.25;;;8.13;;
78288;SDS011;67539;48.752;12.922;2023-03-16T02:20:32;11.68;;;8.05;;
78288;SDS011;67539;48.752;12.922;2023-03-16T02:23:07;12.77;;;9.15;;
78288;SDS011;67539;48.752;12.922;2023-03-16T02:25:48;9.43;;;7.75;;
78288;SDS011;67539;48.752;12.922;2023-03-16T02:28:27;10.90;;;8.57;;
78288;SDS011;67539;48.752;12.922;2023-03-16T02:31:01;14.25;;;8.77;;
78288;SDS011;67539;48.752;12.922;2023-03-16T02:33:31;12.80;;;7.90;;
78288;SDS011;67539;48.752;12.922;2023-03-16T02:36:01;12.00;;;9.10;;
78288;SDS011;67539;48.752;12.922;2023-03-16T02:38:29;9.50;;;7.57;;
78288;SDS011;67539;48.752;12.922;2023-03-16T02:41:00;12.25;;;7.90;;
78288;SDS011;67539;48.752;12.922;2023-03-16T02:43:37;11.27;;;7.93;;
78288;SDS011;67539;48.752;12.922;2023-03-16T02:46:17;10.43;;;7.63;;
78288;SDS011;67539;48.752;12.922;2023-03-16T02:48:48;7.70;;;6.80;;
78288;SDS011;67539;48.752;12.922;2023-03-16T02:51:21;9.15;;;7.68;;
78288;SDS011;67539;48.752;12.922;2023-03-16T02:53:49;7.53;;;6.72;;
78288;SDS011;67539;48.752;12.922;2023-03-16T02:56:18;9.15;;;7.15;;
78288;SDS011;67539;48.752;12.922;2023-03-16T02:58:46;9.25;;;7.40;;
78288;SDS011;67539;48.752;12.922;2023-03-16T03:01:18;9.85;;;8.38;;
78288;SDS011;67539;48.752;12.922;2023-03-16T03:03:47;12.45;;;8.98;;
78288;SDS011;67539;48.752;12.922;2023-03-16T03:06:15;9.38;;;7.60;;
78288;SDS011;67539;48.752;12.922;2023-03-16T03:08:43;10.00;;;7.00;;
78288;SDS011;67539;48.752;12.922;2023-03-16T03:11:12;11.65;;;8.45;;
78288;SDS011;67539;48.752;12.922;2023-03-16T03:13:40;9.98;;;7.95;;
78288;SDS011;67539;48.752;12.922;2023-03-16T03:16:13;10.48;;;7.00;;
78288;SDS011;67539;48.752;12.922;2023-03-16T03:18:43;12.10;;;8.07;;
78288;SDS011;67539;48.752;12.922;2023-03-16T03:21:11;10.07;;;7.68;;
78288;SDS011;67539;48.752;12.922;2023-03-16T03:23:39;11.60;;;8.00;;
78288;SDS011;67539;48.752;12.922;2023-03-16T03:26:07;11.68;;;7.28;;
78288;SDS011;67539;48.752;12.922;2023-03-16T03:28:36;11.25;;;7.55;;
78288;SDS011;67539;48.752;12.922;2023-03-16T03:31:04;12.18;;;7.07;;
78288;SDS011;67539;48.752;12.922;2023-03-16T03:33:33;11.15;;;8.65;;
78288;SDS011;67539;48.752;12.922;2023-03-16T03:36:02;10.10;;;8.02;;
78288;SDS011;67539;48.752;12.922;2023-03-16T03:38:34;9.95;;;7.30;;
78288;SDS011;67539;48.752;12.922;2023-03-16T03:41:04;13.45;;;9.30;;
78288;SDS011;67539;48.752;12.922;2023-03-16T03:43:36;9.98;;;7.82;;
78288;SDS011;67539;48.752;12.922;2023-03-16T03:46:07;10.35;;;8.02;;
78288;SDS011;67539;48.752;12.922;2023-03-16T03:48:35;12.00;;;8.48;;
78288;SDS011;67539;48.752;12.922;2023-03-16T03:51:04;12.15;;;9.48;;
78288;SDS011;67539;48.752;12.922;2023-03-16T03:53:42;12.07;;;8.32;;
78288;SDS011;67539;48.752;12.922;2023-03-16T03:56:39;14.25;;;9.48;;
78288;SDS011;67539;48.752;12.922;2023-03-16T03:59:11;12.55;;;9.10;;
78288;SDS011;67539;48.752;12.922;2023-03-16T04:01:57;15.15;;;9.38;;
78288;SDS011;67539;48.752;12.922;2023-03-16T04:04:35;13.07;;;9.27;;
78288;SDS011;67539;48.752;12.922;2023-03-16T04:07:05;13.82;;;8.90;;
78288;SDS011;67539;48.752;12.922;2023-03-16T04:09:33;13.55;;;9.27;;
78288;SDS011;67539;48.752;12.922;2023-03-16T04:12:02;10.93;;;9.50;;
78288;SDS011;67539;48.752;12.922;2023-03-16T04:14:32;11.32;;;8.60;;
78288;SDS011;67539;48.752;12.922;2023-03-16T04:17:05;12.90;;;9.82;;
78288;SDS011;67539;48.752;12.922;2023-03-16T04:19:36;16.13;;;9.43;;
78288;SDS011;67539;48.752;12.922;2023-03-16T04:22:10;11.50;;;8.25;;
78288;SDS011;67539;48.752;12.922;2023-03-16T04:24:38;14.60;;;9.13;;
78288;SDS011;67539;48.752;12.922;2023-03-16T04:27:09;11.02;;;8.52;;
78288;SDS011;67539;48.752;12.922;2023-03-16T04:29:38;11.02;;;8.50;;
78288;SDS011;67539;48.752;12.922;2023-03-16T04:32:07;10.75;;;7.95;;
78288;SDS011;67539;48.752;12.922;2023-03-16T04:34:37;9.00;;;6.68;;
78288;SDS011;67539;48.752;12.922;2023-03-16T04:37:11;10.68;;;7.63;;
78288;SDS011;67539;48.752;12.922;2023-03-16T04:39:41;10.63;;;8.45;;
78288;SDS011;67539;48.752;12.922;2023-03-16T04:42:09;12.63;;;9.07;;
78288;SDS011;67539;48.752;12.922;2023-03-16T04:44:37;12.15;;;8.90;;
78288;SDS011;67539;48.752;12.922;2023-03-16T04:47:12;11.13;;;8.63;;
78288;SDS011;67539;48.752;12.922;2023-03-16T04:49:42;13.27;;;9.18;;
78288;SDS011;67539;48.752;12.922;2023-03-16T04:52:12;14.00;;;8.95;;
78288;SDS011;67539;48.752;12.922;2023-03-16T04:54:41;10.85;;;9.38;;
78288;SDS011;67539;48.752;12.922;2023-03-16T04:57:13;12.13;;;8.77;;
78288;SDS011;67539;48.752;12.922;2023-03-16T04:59:47;13.15;;;10.50;;
78288;SDS011;67539;48.752;12.922;2023-03-16T05:02:24;14.05;;;9.68;;
78288;SDS011;67539;48.752;12.922;2023-03-16T05:04:53;16.42;;;11.95;;
78288;SDS011;67539;48.752;12.922;2023-03-16T05:07:24;13.10;;;9.80;;
78288;SDS011;67539;48.752;12.922;2023-03-16T05:09:54;14.43;;;9.65;;
78288;SDS011;67539;48.752;12.922;2023-03-16T05:12:22;14.48;;;10.38;;
78288;SDS011;67539;48.752;12.922;2023-03-16T05:14:54;15.23;;;10.55;;
78288;SDS011;67539;48.752;12.922;2023-03-16T05:17:32;16.52;;;10.95;;
78288;SDS011;67539;48.752;12.922;2023-03-16T05:20:00;13.32;;;9.73;;
78288;SDS011;67539;48.752;12.922;2023-03-16T05:22:35;16.48;;;11.48;;
78288;SDS011;67539;48.752;12.922;2023-03-16T05:25:12;17.98;;;10.95;;
78288;SDS011;67539;48.752;12.922;2023-03-16T05:27:46;15.95;;;11.10;;
78288;SDS011;67539;48.752;12.922;2023-03-16T05:30:23;17.27;;;11.80;;
78288;SDS011;67539;48.752;12.922;2023-03-16T05:32:54;15.20;;;10.48;;
78288;SDS011;67539;48.752;12.922;2023-03-16T05:35:24;17.50;;;11.60;;
78288;SDS011;67539;48.752;12.922;2023-03-16T05:37:59;12.90;;;10.02;;
78288;SDS011;67539;48.752;12.922;2023-03-16T05:40:29;15.77;;;10.98;;
78288;SDS011;67539;48.752;12.922;2023-03-16T05:43:18;17.77;;;11.25;;
78288;SDS011;67539;48.752;12.922;2023-03-16T05:45:50;16.02;;;11.55;;
78288;SDS011;67539;48.752;12.922;2023-03-16T05:48:18;17.88;;;11.95;;
78288;SDS011;67539;48.752;12.922;2023-03-16T05:50:52;16.80;;;11.23;;
78288;SDS011;67539;48.752;12.922;2023-03-16T05:53:27;21.95;;;12.77;;
78288;SDS011;67539;48.752;12.922;2023-03-16T05:56:03;16.70;;;11.68;;
78288;SDS011;67539;48.752;12.922;2023-03-16T05:58:36;17.30;;;10.88;;
78288;SDS011;67539;48.752;12.922;2023-03-16T06:01:06;17.65;;;11.52;;
78288;SDS011;67539;48.752;12.922;2023-03-16T06:03:35;16.67;;;11.32;;
78288;SDS011;67539;48.752;12.922;2023-03-16T06:06:06;17.08;;;11.70;;
78288;SDS011;67539;48.752;12.922;2023-03-16T06:08:46;20.90;;;12.63;;
78288;SDS011;67539;48.752;12.922;2023-03-16T06:11:17;16.88;;;11.57;;
78288;SDS011;67539;48.752;12.922;2023-03-16T06:13:45;24.23;;;12.40;;
78288;SDS011;67539;48.752;12.922;2023-03-16T06:16:13;22.10;;;13.80;;
78288;SDS011;67539;48.752;12.922;2023-03-16T06:18:42;19.00;;;12.38;;
78288;SDS011;67539;48.752;12.922;2023-03-16T06:21:10;22.85;;;13.23;;
78288;SDS011;67539;48.752;12.922;2023-03-16T06:23:39;18.55;;;12.02;;
78288;SDS011;67539;48.752;12.922;2023-03-16T06:26:09;21.35;;;14.70;;
78288;SDS011;67539;48.752;12.922;2023-03-16T06:28:40;20.80;;;13.38;;
78288;SDS011;67539;48.752;12.922;2023-03-16T06:31:08;18.95;;;13.20;;
78288;SDS011;67539;48.752;12.922;2023-03-16T06:33:38;19.92;;;13.10;;
78288;SDS011;67539;48.752;12.922;2023-03-16T06:36:06;19.45;;;12.50;;
78288;SDS011;67539;48.752;12.922;2023-03-16T06:38:39;18.90;;;13.43;;
78288;SDS011;67539;48.752;12.922;2023-03-16T06:41:15;17.38;;;12.70;;
78288;SDS011;67539;48.752;12.922;2023-03-16T06:43:45;18.92;;;12.43;;
78288;SDS011;67539;48.752;12.922;2023-03-16T06:46:13;15.88;;;11.68;;
78288;SDS011;67539;48.752;12.922;2023-03-16T06:48:41;18.40;;;13.20;;
78288;SDS011;67539;48.752;12.922;2023-03-16T06:51:09;19.25;;;12.80;;
78288;SDS011;67539;48.752;12.922;2023-03-16T06:53:37;17.42;;;12.38;;
78288;SDS011;67539;48.752;12.922;2023-03-16T06:56:06;20.15;;;12.95;;
78288;SDS011;67539;48.752;12.922;2023-03-16T06:58:40;17.08;;;11.95;;
78288;SDS011;67539;48.752;12.922;2023-03-16T07:01:08;20.08;;;13.57;;
78288;SDS011;67539;48.752;12.922;2023-03-16T07:03:37;15.65;;;12.10;;
78288;SDS011;67539;48.752;12.922;2023-03-16T07:06:24;15.25;;;11.10;;
78288;SDS011;67539;48.752;12.922;2023-03-16T07:08:52;16.35;;;11.80;;
78288;SDS011;67539;48.752;12.922;2023-03-16T07:11:21;18.77;;;11.85;;
78288;SDS011;67539;48.752;12.922;2023-03-16T07:13:51;14.60;;;11.55;;
78288;SDS011;67539;48.752;12.922;2023-03-16T07:16:20;17.90;;;11.88;;
78288;SDS011;67539;48.752;12.922;2023-03-16T07:18:49;15.43;;;11.80;;
78288;SDS011;67539;48.752;12.922;2023-03-16T07:21:18;20.65;;;12.40;;
78288;SDS011;67539;48.752;12.922;2023-03-16T07:23:47;15.45;;;11.15;;
78288;SDS011;67539;48.752;12.922;2023-03-16T07:26:21;17.40;;;12.07;;
78288;SDS011;67539;48.752;12.922;2023-03-16T07:28:55;16.45;;;11.70;;
78288;SDS011;67539;48.752;12.922;2023-03-16T07:31:23;15.65;;;11.30;;
78288;SDS011;67539;48.752;12.922;2023-03-16T07:33:54;15.00;;;11.52;;
78288;SDS011;67539;48.752;12.922;2023-03-16T07:36:31;14.30;;;11.98;;
78288;SDS011;67539;48.752;12.922;2023-03-16T07:39:00;14.70;;;11.05;;
78288;SDS011;67539;48.752;12.922;2023-03-16T07:41:28;14.98;;;11.75;;
78288;SDS011;67539;48.752;12.922;2023-03-16T07:44:13;19.00;;;12.73;;
78288;SDS011;67539;48.752;12.922;2023-03-16T07:46:45;14.35;;;10.60;;
78288;SDS011;67539;48.752;12.922;2023-03-16T07:49:14;16.02;;;12.15;;
78288;SDS011;67539;48.752;12.922;2023-03-16T07:51:44;14.85;;;10.70;;
78288;SDS011;67539;48.752;12.922;2023-03-16T07:54:14;15.20;;;10.15;;
78288;SDS011;67539;48.752;12.922;2023-03-16T07:56:42;15.07;;;10.20;;
78288;SDS011;67539;48.752;12.922;2023-03-16T07:59:27;12.30;;;9.70;;
78288;SDS011;67539;48.752;12.922;2023-03-16T08:01:57;11.38;;;8.82;;
78288;SDS011;67539;48.752;12.922;2023-03-16T08:04:25;11.80;;;9.00;;
78288;SDS011;67539;48.752;12.922;2023-03-16T08:06:55;10.52;;;9.50;;
78288;SDS011;67539;48.752;12.922;2023-03-16T08:09:31;13.07;;;9.98;;
78288;SDS011;67539;48.752;12.922;2023-03-16T08:12:03;12.18;;;10.07;;
78288;SDS011;67539;48.752;12.922;2023-03-16T08:14:35;12.85;;;9.52;;
78288;SDS011;67539;48.752;12.922;2023-03-16T08:17:14;13.82;;;10.48;;
78288;SDS011;67539;48.752;12.922;2023-03-16T08:19:44;15.40;;;11.18;;
78288;SDS011;67539;48.752;12.922;2023-03-16T08:22:13;12.48;;;11.15;;
78288;SDS011;67539;48.752;12.922;2023-03-16T08:24:45;15.10;;;11.85;;
78288;SDS011;67539;48.752;12.922;2023-03-16T08:27:15;16.73;;;12.52;;
78288;SDS011;67539;48.752;12.922;2023-03-16T08:29:51;17.08;;;12.50;;
78288;SDS011;67539;48.752;12.922;2023-03-16T08:32:23;17.90;;;12.85;;
78288;SDS011;67539;48.752;12.922;2023-03-16T08:34:51;18.27;;;13.07;;
78288;SDS011;67539;48.752;12.922;2023-03-16T08:37:20;14.85;;;12.30;;
78288;SDS011;67539;48.752;12.922;2023-03-16T08:39:51;17.65;;;13.35;;
78288;SDS011;67539;48.752;12.922;2023-03-16T08:42:20;15.45;;;12.65;;
78288;SDS011;67539;48.752;12.922;2023-03-16T08:44:55;21.25;;;14.63;;
78288;SDS011;67539;48.752;12.922;2023-03-16T08:47:27;25.05;;;15.90;;
78288;SDS011;67539;48.752;12.922;2023-03-16T08:49:57;18.90;;;13.95;;
78288;SDS011;67539;48.752;12.922;2023-03-16T08:52:25;16.85;;;12.85;;
78288;SDS011;67539;48.752;12.922;2023-03-16T08:54:53;16.35;;;12.77;;
78288;SDS011;67539;48.752;12.922;2023-03-16T08:57:29;18.40;;;13.63;;
78288;SDS011;67539;48.752;12.922;2023-03-16T08:59:59;22.33;;;14.50;;
78288;SDS011;67539;48.752;12.922;2023-03-16T09:02:29;17.65;;;13.40;;
78288;SDS011;67539;48.752;12.922;2023-03-16T09:04:56;14.55;;;12.35;;
78288;SDS011;67539;48.752;12.922;2023-03-16T09:07:25;14.43;;;11.25;;
78288;SDS011;67539;48.752;12.922;2023-03-16T09:09:55;16.95;;;11.15;;
78288;SDS011;67539;48.752;12.922;2023-03-16T09:12:23;15.00;;;12.35;;
78288;SDS011;67539;48.752;12.922;2023-03-16T09:14:51;13.82;;;10.52;;
78288;SDS011;67539;48.752;12.922;2023-03-16T09:17:21;13.75;;;11.20;;
78288;SDS011;67539;48.752;12.922;2023-03-16T09:19:48;17.55;;;11.48;;
78288;SDS011;67539;48.752;12.922;2023-03-16T09:22:20;14.55;;;11.60;;
78288;SDS011;67539;48.752;12.922;2023-03-16T09:24:49;14.50;;;10.27;;
78288;SDS011;67539;48.752;12.922;2023-03-16T09:27:17;12.27;;;10.20;;
78288;SDS011;67539;48.752;12.922;2023-03-16T09:29:46;16.67;;;11.93;;
78288;SDS011;67539;48.752;12.922;2023-03-16T09:32:14;10.38;;;9.07;;
78288;SDS011;67539;48.752;12.922;2023-03-16T09:34:43;11.07;;;8.40;;
78288;SDS011;67539;48.752;12.922;2023-03-16T09:37:11;11.07;;;8.73;;
78288;SDS011;67539;48.752;12.922;2023-03-16T09:39:40;8.80;;;7.60;;
78288;SDS011;67539;48.752;12.922;2023-03-16T09:42:12;8.60;;;7.50;;
78288;SDS011;67539;48.752;12.922;2023-03-16T09:44:46;10.43;;;8.30;;
78288;SDS011;67539;48.752;12.922;2023-03-16T09:47:24;7.47;;;6.67;;
78288;SDS011;67539;48.752;12.922;2023-03-16T09:49:56;9.37;;;7.90;;
78288;SDS011;67539;48.752;12.922;2023-03-16T09:52:27;8.37;;;7.23;;
78288;SDS011;67539;48.752;12.922;2023-03-16T09:55:03;10.40;;;7.23;;
78288;SDS011;67539;48.752;12.922;2023-03-16T09:57:38;8.70;;;7.43;;
78288;SDS011;67539;48.752;12.922;2023-03-16T10:00:13;7.30;;;6.60;;
78288;SDS011;67539;48.752;12.922;2023-03-16T10:02:48;7.30;;;6.10;;
78288;SDS011;67539;48.752;12.922;2023-03-16T10:05:26;7.10;;;6.30;;
78288;SDS011;67539;48.752;12.922;2023-03-16T10:07:57;10.50;;;6.97;;
78288;SDS011;67539;48.752;12.922;2023-03-16T10:10:40;9.93;;;5.97;;
78288;SDS011;67539;48.752;12.922;2023-03-16T10:13:27;7.80;;;6.87;;
78288;SDS011;67539;48.752;12.922;2023-03-16T10:16:03;10.17;;;6.53;;
78288;SDS011;67539;48.752;12.922;2023-03-16T10:18:38;7.30;;;6.60;;
78288;SDS011;67539;48.752;12.922;2023-03-16T10:21:13;8.07;;;6.83;;
78288;SDS011;67539;48.752;12.922;2023-03-16T10:23:43;7.27;;;6.57;;
78288;SDS011;67539;48.752;12.922;2023-03-16T10:26:15;6.30;;;5.80;;
78288;SDS011;67539;48.752;12.922;2023-03-16T10:28:46;6.93;;;5.67;;
78288;SDS011;67539;48.752;12.922;2023-03-16T10:31:14;7.83;;;7.03;;
78288;SDS011;67539;48.752;12.922;2023-03-16T10:33:45;6.37;;;5.77;;
78288;SDS011;67539;48.752;12.922;2023-03-16T10:36:17;5.93;;;5.43;;
78288;SDS011;67539;48.752;12.922;2023-03-16T10:38:52;5.83;;;5.23;;
78288;SDS011;67539;48.752;12.922;2023-03-16T10:41:26;7.50;;;5.67;;
78288;SDS011;67539;48.752;12.922;2023-03-16T10:43:56;6.20;;;5.60;;
78288;SDS011;67539;48.752;12.922;2023-03-16T10:46:35;7.73;;;6.40;;
78288;SDS011;67539;48.752;12.922;2023-03-16T10:49:04;5.93;;;4.90;;
78288;SDS011;67539;48.752;12.922;2023-03-16T10:51:47;5.60;;;5.10;;
78288;SDS011;67539;48.752;12.922;2023-03-16T10:54:26;5.03;;;4.63;;
78288;SDS011;67539;48.752;12.922;2023-03-16T10:56:57;5.50;;;4.93;;
78288;SDS011;67539;48.752;12.922;2023-03-16T10:59:27;6.00;;;5.50;;
78288;SDS011;67539;48.752;12.922;2023-03-16T11:01:57;5.63;;;4.93;;
78288;SDS011;67539;48.752;12.922;2023-03-16T11:04:29;5.80;;;5.30;;
78288;SDS011;67539;48.752;12.922;2023-03-16T11:07:00;6.27;;;5.67;;
78288;SDS011;67539;48.752;12.922;2023-03-16T11:09:30;5.67;;;5.20;;
78288;SDS011;67539;48.752;12.922;2023-03-16T11:12:00;6.17;;;5.57;;
78288;SDS011;67539;48.752;12.922;2023-03-16T11:14:42;6.67;;;6.07;;
78288;SDS011;67539;48.752;12.922;2023-03-16T11:17:12;6.53;;;5.93;;
78288;SDS011;67539;48.752;12.922;2023-03-16T11:19:51;7.83;;;6.77;;
78288;SDS011;67539;48.752;12.922;2023-03-16T11:22:22;4.93;;;4.53;;
78288;SDS011;67539;48.752;12.922;2023-03-16T11:24:52;6.10;;;5.53;;
78288;SDS011;67539;48.752;12.922;2023-03-16T11:27:29;6.63;;;6.00;;
78288;SDS011;67539;48.752;12.922;2023-03-16T11:30:04;5.83;;;5.33;;
78288;SDS011;67539;48.752;12.922;2023-03-16T11:32:39;5.50;;;5.03;;
78288;SDS011;67539;48.752;12.922;2023-03-16T11:35:16;5.30;;;4.90;;
78288;SDS011;67539;48.752;12.922;2023-03-16T11:37:58;6.17;;;5.67;;
78288;SDS011;67539;48.752;12.922;2023-03-16T11:40:37;6.73;;;6.03;;
78288;SDS011;67539;48.752;12.922;2023-03-16T11:43:21;6.20;;;5.70;;
78288;SDS011;67539;48.752;12.922;2023-03-16T11:46:07;94.60;;;36.23;;
78288;SDS011;67539;48.752;12.922;2023-03-16T11:48:39;16.83;;;11.83;;
78288;SDS011;67539;48.752;12.922;2023-03-16T11:51:14;6.97;;;5.70;;
78288;SDS011;67539;48.752;12.922;2023-03-16T11:53:57;12.33;;;10.00;;
78288;SDS011;67539;48.752;12.922;2023-03-16T11:56:35;8.40;;;7.60;;
78288;SDS011;67539;48.752;12.922;2023-03-16T11:59:22;7.77;;;7.07;;
78288;SDS011;67539;48.752;12.922;2023-03-16T12:45:55;4.53;;;4.13;;
78288;SDS011;67539;48.752;12.922;2023-03-16T12:48:29;5.53;;;5.13;;
78288;SDS011;67539;48.752;12.922;2023-03-16T12:51:00;8.43;;;3.80;;
78288;SDS011;67539;48.752;12.922;2023-03-16T12:53:41;4.70;;;4.40;;
78288;SDS011;67539;48.752;12.922;2023-03-16T12:56:12;3.40;;;3.20;;
78288;SDS011;67539;48.752;12.922;2023-03-16T12:58:43;6.13;;;5.63;;
78288;SDS011;67539;48.752;12.922;2023-03-16T13:01:15;4.07;;;3.77;;
78288;SDS011;67539;48.752;12.922;2023-03-16T13:03:46;3.20;;;3.00;;
78288;SDS011;67539;48.752;12.922;2023-03-16T13:06:17;3.57;;;3.27;;
78288;SDS011;67539;48.752;12.922;2023-03-16T13:08:56;3.10;;;2.90;;
78288;SDS011;67539;48.752;12.922;2023-03-16T13:11:26;3.27;;;3.00;;
78288;SDS011;67539;48.752;12.922;2023-03-16T13:14:05;4.30;;;4.00;;
78288;SDS011;67539;48.752;12.922;2023-03-16T13:16:39;3.87;;;3.50;;
78288;SDS011;67539;48.752;12.922;2023-03-16T13:19:16;2.40;;;2.20;;
78288;SDS011;67539;48.752;12.922;2023-03-16T13:24:36;2.30;;;2.10;;
78288;SDS011;67539;48.752;12.922;2023-03-16T13:27:11;1.87;;;1.77;;
78288;SDS011;67539;48.752;12.922;2023-03-16T13:29:52;2.67;;;2.50;;
78288;SDS011;67539;48.752;12.922;2023-03-16T13:32:23;2.13;;;1.80;;
78288;SDS011;67539;48.752;12.922;2023-03-16T13:34:55;9.37;;;2.47;;
78288;SDS011;67539;48.752;12.922;2023-03-16T13:37:26;2.73;;;2.53;;
78288;SDS011;67539;48.752;12.922;2023-03-16T13:39:55;2.37;;;2.27;;
78288;SDS011;67539;48.752;12.922;2023-03-16T13:42:27;2.30;;;2.20;;
78288;SDS011;67539;48.752;12.922;2023-03-16T13:44:57;3.70;;;3.03;;
78288;SDS011;67539;48.752;12.922;2023-03-16T13:47:34;3.10;;;2.80;;
78288;SDS011;67539;48.752;12.922;2023-03-16T13:50:02;2.90;;;2.70;;
78288;SDS011;67539;48.752;12.922;2023-03-16T13:52:32;2.20;;;2.00;;
78288;SDS011;67539;48.752;12.922;2023-03-16T13:55:02;2.27;;;2.17;;
78288;SDS011;67539;48.752;12.922;2023-03-16T13:57:37;2.80;;;2.60;;
78288;SDS011;67539;48.752;12.922;2023-03-16T14:00:13;3.10;;;2.60;;
78288;SDS011;67539;48.752;12.922;2023-03-16T14:02:45;2.63;;;2.53;;
78288;SDS011;67539;48.752;12.922;2023-03-16T14:05:16;2.83;;;2.57;;
78288;SDS011;67539;48.752;12.922;2023-03-16T14:07:47;2.60;;;2.40;;
78288;SDS011;67539;48.752;12.922;2023-03-16T14:10:17;2.30;;;2.20;;
78288;SDS011;67539;48.752;12.922;2023-03-16T14:12:50;2.23;;;2.13;;
78288;SDS011;67539;48.752;12.922;2023-03-16T14:15:19;1.97;;;1.87;;
78288;SDS011;67539;48.752;12.922;2023-03-16T14:17:50;2.27;;;2.07;;
78288;SDS011;67539;48.752;12.922;2023-03-16T14:20:19;2.20;;;2.10;;
78288;SDS011;67539;48.752;12.922;2023-03-16T14:22:51;2.53;;;2.20;;
78288;SDS011;67539;48.752;12.922;2023-03-16T14:25:20;2.13;;;2.03;;
78288;SDS011;67539;48.752;12.922;2023-03-16T14:27:56;2.43;;;2.33;;
78288;SDS011;67539;48.752;12.922;2023-03-16T14:30:26;2.53;;;2.43;;
78288;SDS011;67539;48.752;12.922;2023-03-16T14:32:58;2.90;;;2.80;;
78288;SDS011;67539;48.752;12.922;2023-03-16T14:35:28;2.80;;;2.70;;
78288;SDS011;67539;48.752;12.922;2023-03-16T14:40:50;4.43;;;4.13;;
78288;SDS011;67539;48.752;12.922;2023-03-16T14:43:20;4.37;;;4.07;;
78288;SDS011;67539;48.752;12.922;2023-03-16T14:45:56;4.33;;;4.00;;
78288;SDS011;67539;48.752;12.922;2023-03-16T14:48:25;4.93;;;4.57;;
78288;SDS011;67539;48.752;12.922;2023-03-16T14:50:56;2.60;;;2.40;;
78288;SDS011;67539;48.752;12.922;2023-03-16T14:53:26;2.63;;;2.43;;
78288;SDS011;67539;48.752;12.922;2023-03-16T14:55:55;5.93;;;5.33;;
78288;SDS011;67539;48.752;12.922;2023-03-16T14:58:24;3.13;;;2.93;;
78288;SDS011;67539;48.752;12.922;2023-03-16T15:00:53;3.20;;;3.00;;
78288;SDS011;67539;48.752;12.922;2023-03-16T15:03:22;1.97;;;1.87;;
78288;SDS011;67539;48.752;12.922;2023-03-16T15:05:59;4.90;;;4.47;;
78288;SDS011;67539;48.752;12.922;2023-03-16T15:08:29;4.60;;;4.30;;
78288;SDS011;67539;48.752;12.922;2023-03-16T15:11:00;7.10;;;6.50;;
78288;SDS011;67539;48.752;12.922;2023-03-16T15:13:31;5.90;;;5.40;;
78288;SDS011;67539;48.752;12.922;2023-03-16T15:16:18;4.57;;;4.37;;
78288;SDS011;67539;48.752;12.922;2023-03-16T15:18:50;4.53;;;4.17;;
78288;SDS011;67539;48.752;12.922;2023-03-16T15:21:18;13.67;;;11.67;;
78288;SDS011;67539;48.752;12.922;2023-03-16T15:23:51;9.50;;;3.80;;
78288;SDS011;67539;48.752;12.922;2023-03-16T15:26:20;9.60;;;8.70;;
78288;SDS011;67539;48.752;12.922;2023-03-16T15:28:51;5.80;;;5.30;;
78288;SDS011;67539;48.752;12.922;2023-03-16T15:31:19;6.53;;;5.97;;
78288;SDS011;67539;48.752;12.922;2023-03-16T15:33:50;4.33;;;2.83;;
78288;SDS011;67539;48.752;12.922;2023-03-16T15:36:18;6.33;;;5.73;;
78288;SDS011;67539;48.752;12.922;2023-03-16T15:38:48;3.10;;;2.90;;